Time;durP1;ratioP1;P1;durP2;ratioP2;P2;SDS_P1;SDS_P2;PMS_P1;PMS_P2;Temp;Humidity;BMP_temperature;BMP_pressure;BME280_temperature;BME280_humidity;BME280_pressure;Samples;Min_cycle;Max_cycle;Signal;HPM_P1;HPM_P2
2023/01/21 00:01:17;;;;;;;85.47;34.83;;;0.90;99.90;;;;;;5033309;28;20064;-73
2023/01/21 00:03:43;;;;;;;83.13;34.35;;;0.90;99.90;;;;;;5030038;28;20029;-74
2023/01/21 00:06:10;;;;;;;91.30;34.38;;;0.90;99.90;;;;;;5032463;28;20025;-74
2023/01/21 00:08:35;;;;;;;82.18;32.85;;;0.80;99.90;;;;;;5048648;28;20013;-74
2023/01/21 00:11:05;;;;;;;88.68;34.45;;;0.80;99.90;;;;;;5046048;28;20119;-73
2023/01/21 00:13:33;;;;;;;87.05;34.58;;;0.80;99.90;;;;;;5031845;28;20105;-74
2023/01/21 00:15:59;;;;;;;92.90;35.08;;;0.80;99.90;;;;;;5047771;28;20036;-74
2023/01/21 00:18:24;;;;;;;85.78;33.78;;;0.80;99.90;;;;;;5049696;28;20387;-74
2023/01/21 00:20:50;;;;;;;89.45;34.53;;;0.80;99.90;;;;;;5048013;28;20045;-74
2023/01/21 00:23:15;;;;;;;86.80;33.83;;;0.80;99.90;;;;;;5048642;28;20068;-74
2023/01/21 00:25:41;;;;;;;93.10;35.35;;;0.80;99.90;;;;;;5048241;28;20036;-74
2023/01/21 00:28:06;;;;;;;89.55;34.22;;;0.80;99.90;;;;;;5047465;28;20059;-74
2023/01/21 00:30:32;;;;;;;95.18;35.45;;;0.80;99.90;;;;;;5048658;28;20068;-74
2023/01/21 00:32:58;;;;;;;92.10;34.70;;;0.80;99.90;;;;;;5048005;28;20052;-73
2023/01/21 00:35:23;;;;;;;90.70;35.10;;;0.80;99.90;;;;;;5049771;28;20396;-74
2023/01/21 00:37:52;;;;;;;93.65;35.92;;;0.80;99.90;;;;;;5038276;28;20021;-74
2023/01/21 00:40:17;;;;;;;91.32;33.60;;;0.80;99.90;;;;;;5032429;28;20643;-74
2023/01/21 00:42:43;;;;;;;86.72;33.13;;;0.70;99.90;;;;;;5031771;28;20112;-74
2023/01/21 00:45:09;;;;;;;83.50;32.95;;;0.70;99.90;;;;;;5049680;28;20476;-73
2023/01/21 00:47:34;;;;;;;83.45;33.70;;;0.70;99.90;;;;;;5049279;28;20021;-74
2023/01/21 00:50:00;;;;;;;87.57;33.53;;;0.70;99.90;;;;;;5035037;28;20054;-73
2023/01/21 00:52:26;;;;;;;85.90;33.38;;;0.60;99.90;;;;;;5041792;28;20021;-74
2023/01/21 00:54:51;;;;;;;89.05;33.88;;;0.60;99.90;;;;;;5043083;28;20036;-73
2023/01/21 00:57:17;;;;;;;83.75;33.72;;;0.60;99.90;;;;;;5048139;28;20336;-73
2023/01/21 00:59:43;;;;;;;92.63;33.90;;;0.60;99.90;;;;;;5047995;28;20032;-74
2023/01/21 01:02:08;;;;;;;87.95;35.45;;;0.60;99.90;;;;;;5047811;28;20025;-74
2023/01/21 01:04:34;;;;;;;87.13;33.97;;;0.60;99.90;;;;;;5049669;28;20029;-73
2023/01/21 01:07:00;;;;;;;87.32;34.10;;;0.50;99.90;;;;;;5049770;28;20029;-74
2023/01/21 01:09:25;;;;;;;87.00;33.33;;;0.60;99.90;;;;;;5048817;28;20017;-73
2023/01/21 01:11:51;;;;;;;93.90;33.78;;;0.50;99.90;;;;;;5049312;28;20423;-73
2023/01/21 01:14:17;;;;;;;90.10;34.25;;;0.50;99.90;;;;;;5049287;28;20032;-74
2023/01/21 01:16:43;;;;;;;84.00;32.97;;;0.50;99.90;;;;;;5049603;28;20088;-73
2023/01/21 01:19:10;;;;;;;93.47;35.47;;;0.50;99.90;;;;;;5048044;28;20108;-74
2023/01/21 01:21:36;;;;;;;93.53;34.15;;;0.50;99.90;;;;;;5050958;28;20405;-73
2023/01/21 01:24:02;;;;;;;92.70;35.38;;;0.50;99.90;;;;;;5053143;28;20230;-73
2023/01/21 01:26:28;;;;;;;92.13;35.63;;;0.50;99.90;;;;;;5052470;28;20105;-73
2023/01/21 01:28:54;;;;;;;90.28;34.45;;;0.40;99.90;;;;;;5053436;28;20017;-73
2023/01/21 01:31:20;;;;;;;90.97;35.58;;;0.40;99.90;;;;;;5052544;28;20017;-73
2023/01/21 01:33:46;;;;;;;91.75;35.97;;;0.40;99.90;;;;;;5054457;28;20040;-73
2023/01/21 01:36:18;;;;;;;95.10;35.78;;;0.40;99.90;;;;;;5053961;28;20036;-73
2023/01/21 01:38:44;;;;;;;87.18;34.00;;;0.40;99.90;;;;;;5052776;28;20036;-73
2023/01/21 01:41:19;;;;;;;94.75;35.55;;;0.40;99.90;;;;;;5050536;28;20029;-73
2023/01/21 01:43:51;;;;;;;98.15;36.55;;;0.40;99.90;;;;;;5048123;28;20048;-73
2023/01/21 01:46:16;;;;;;;90.40;34.25;;;0.40;99.90;;;;;;5052624;28;20433;-73
2023/01/21 01:48:45;;;;;;;92.15;35.55;;;0.40;99.90;;;;;;5052972;28;20124;-73
2023/01/21 01:51:15;;;;;;;96.53;35.63;;;0.30;99.90;;;;;;5052827;28;20037;-73
2023/01/21 01:53:44;;;;;;;98.13;35.80;;;0.30;99.90;;;;;;5050975;28;20068;-73
2023/01/21 01:56:10;;;;;;;92.07;34.25;;;0.40;99.90;;;;;;5052384;28;20040;-73
2023/01/21 01:58:36;;;;;;;91.68;34.53;;;0.30;99.90;;;;;;5032358;28;20045;-73
2023/01/21 02:01:03;;;;;;;95.43;34.65;;;0.30;99.90;;;;;;5042332;28;20550;-73
2023/01/21 02:03:45;;;;;;;83.68;34.85;;;0.30;99.90;;;;;;5048105;28;20138;-73
2023/01/21 02:06:15;;;;;;;96.13;35.08;;;0.20;99.90;;;;;;5052552;28;20029;-73
2023/01/21 02:08:43;;;;;;;93.32;33.63;;;0.20;99.90;;;;;;5047654;28;20036;-73
2023/01/21 02:11:14;;;;;;;91.38;35.83;;;0.10;99.90;;;;;;5051541;28;20028;-73
2023/01/21 02:13:42;;;;;;;91.47;35.65;;;0.10;99.90;;;;;;5051166;28;20246;-73
2023/01/21 02:16:17;;;;;;;99.05;36.58;;;0.10;99.90;;;;;;5052374;28;20131;-73
2023/01/21 02:18:51;;;;;;;93.30;35.55;;;0.10;99.90;;;;;;5052327;28;20021;-73
2023/01/21 02:21:19;;;;;;;100.80;36.63;;;0.10;99.90;;;;;;5052300;28;20028;-73
2023/01/21 02:24:03;;;;;;;97.07;35.50;;;0.10;99.90;;;;;;5051071;28;20013;-73
2023/01/21 02:26:50;;;;;;;100.68;35.13;;;0.10;99.90;;;;;;5052246;28;20079;-73
2023/01/21 02:29:52;;;;;;;100.32;37.00;;;0.10;99.90;;;;;;5051641;28;20025;-73
2023/01/21 02:32:36;;;;;;;97.03;35.53;;;0.10;99.90;;;;;;5051021;28;20379;-73
2023/01/21 02:35:15;;;;;;;102.47;36.72;;;0.10;99.90;;;;;;5052017;28;20044;-73
2023/01/21 02:37:51;;;;;;;97.53;35.70;;;0.10;99.90;;;;;;5051631;28;20039;-73
2023/01/21 02:40:38;;;;;;;101.55;36.92;;;0.10;99.90;;;;;;5051632;28;20128;-74
2023/01/21 02:43:13;;;;;;;99.28;36.55;;;0.00;99.90;;;;;;5052252;28;20029;-73
2023/01/21 02:45:50;;;;;;;106.85;37.42;;;0.00;99.90;;;;;;5051108;28;20068;-73
2023/01/21 02:48:18;;;;;;;103.90;36.28;;;0.00;99.90;;;;;;5051339;28;20020;-74
2023/01/21 02:50:52;;;;;;;108.30;38.45;;;0.00;99.90;;;;;;5048877;28;20119;-73
2023/01/21 02:53:29;;;;;;;104.68;36.60;;;0.00;99.90;;;;;;5040315;28;20022;-73
2023/01/21 02:56:21;;;;;;;100.20;36.97;;;0.00;99.90;;;;;;5050356;28;20132;-73
2023/01/21 02:58:56;;;;;;;99.78;35.80;;;0.00;99.90;;;;;;5032003;28;20032;-73
2023/01/21 03:01:22;;;;;;;;;;;0.00;99.90;;;;;;5029148;28;20032;-74
2023/01/21 03:04:03;;;;;;;116.88;37.63;;;0.00;99.90;;;;;;5051253;28;19912;-74
2023/01/21 03:06:31;;;;;;;105.40;36.33;;;0.00;99.90;;;;;;5040493;28;20025;-73
2023/01/21 03:09:16;;;;;;;106.35;37.28;;;0.00;99.90;;;;;;5039398;28;20101;-73
2023/01/21 03:11:47;;;;;;;105.30;37.78;;;0.00;99.90;;;;;;5031048;28;20121;-73
2023/01/21 03:17:33;;;;;;;98.78;35.40;;;0.10;99.90;;;;;;5049159;28;20078;-73
2023/01/21 03:20:08;;;;;;;104.43;35.90;;;0.10;99.90;;;;;;5046923;28;20021;-74
2023/01/21 03:22:35;;;;;;;100.68;36.70;;;0.10;99.90;;;;;;5051025;28;20379;-74
2023/01/21 03:25:03;;;;;;;101.68;36.53;;;0.10;99.90;;;;;;5047303;28;20076;-74
2023/01/21 03:27:30;;;;;;;103.70;37.08;;;0.10;99.90;;;;;;5049402;28;20017;-74
2023/01/21 03:30:02;;;;;;;104.82;36.95;;;0.10;99.90;;;;;;5047154;28;20025;-74
2023/01/21 03:32:31;;;;;;;100.68;37.03;;;0.00;99.90;;;;;;5050510;28;20502;-73
2023/01/21 03:35:00;;;;;;;107.32;37.30;;;0.00;99.90;;;;;;5048921;28;20037;-74
2023/01/21 03:37:38;;;;;;;99.38;36.30;;;0.00;99.90;;;;;;5050172;28;20048;-74
2023/01/21 03:40:11;;;;;;;97.03;35.97;;;0.00;99.90;;;;;;5048805;28;20024;-74
2023/01/21 03:42:37;;;;;;;95.57;34.85;;;0.00;99.90;;;;;;5037075;28;20021;-73
2023/01/21 03:45:03;;;;;;;93.15;35.20;;;0.00;99.90;;;;;;5049387;28;20021;-74
2023/01/21 03:47:35;;;;;;;103.10;36.22;;;0.00;99.90;;;;;;5045921;28;20113;-74
2023/01/21 03:50:07;;;;;;;100.10;35.28;;;0.00;99.90;;;;;;5050374;28;20060;-74
2023/01/21 03:52:33;;;;;;;103.10;35.65;;;0.00;99.90;;;;;;5044449;28;20397;-74
2023/01/21 03:54:59;;;;;;;93.68;33.78;;;0.00;99.90;;;;;;5042230;28;20037;-74
2023/01/21 03:57:24;;;;;;;95.57;34.22;;;-0.10;99.90;;;;;;5043050;28;20017;-74
2023/01/21 03:59:50;;;;;;;96.18;34.17;;;0.00;99.90;;;;;;5049747;28;20017;-74
2023/01/21 04:02:19;;;;;;;91.68;34.65;;;-0.10;99.90;;;;;;5033164;28;20020;-73
2023/01/21 04:04:46;;;;;;;92.97;33.65;;;-0.10;99.90;;;;;;5049629;28;20021;-74
2023/01/21 04:07:17;;;;;;;95.97;35.17;;;-0.10;99.90;;;;;;5050943;28;20021;-74
2023/01/21 04:09:42;;;;;;;99.47;35.50;;;0.00;99.90;;;;;;5049008;28;20059;-74
2023/01/21 04:12:08;;;;;;;91.53;33.90;;;0.00;99.90;;;;;;5050044;28;20551;-74
2023/01/21 04:14:34;;;;;;;100.20;35.30;;;-0.10;99.90;;;;;;5049787;28;20399;-74
2023/01/21 04:16:59;;;;;;;94.93;33.72;;;-0.10;99.90;;;;;;5027847;28;20024;-74
2023/01/21 04:19:25;;;;;;;88.68;32.35;;;-0.10;99.90;;;;;;5050301;28;20029;-74
2023/01/21 04:21:51;;;;;;;92.97;34.67;;;-0.10;99.90;;;;;;5050025;28;20028;-74
2023/01/21 04:24:16;;;;;;;92.93;33.75;;;-0.10;99.90;;;;;;5050055;28;20448;-74
2023/01/21 04:26:42;;;;;;;89.55;34.03;;;-0.10;99.90;;;;;;5047146;28;20037;-74
2023/01/21 04:29:07;;;;;;;94.10;34.35;;;-0.10;99.90;;;;;;5049556;28;20517;-74
2023/01/21 04:31:33;;;;;;;94.25;34.35;;;-0.10;99.90;;;;;;5049471;28;20025;-74
2023/01/21 04:33:59;;;;;;;87.32;32.70;;;-0.10;99.90;;;;;;5049273;28;20032;-74
2023/01/21 04:36:24;;;;;;;90.50;33.17;;;-0.10;99.90;;;;;;5049238;28;20178;-74
2023/01/21 04:38:50;;;;;;;85.28;33.05;;;-0.10;99.90;;;;;;5049688;28;20468;-74
2023/01/21 04:41:17;;;;;;;86.72;31.77;;;-0.20;99.90;;;;;;5049810;28;20025;-74
2023/01/21 04:43:44;;;;;;;83.30;31.83;;;-0.10;99.90;;;;;;5049634;28;20057;-74
2023/01/21 04:46:09;;;;;;;88.13;33.97;;;-0.20;99.90;;;;;;5049167;28;20122;-74
2023/01/21 04:48:35;;;;;;;95.10;36.20;;;-0.10;99.90;;;;;;5049137;28;20052;-74
2023/01/21 04:51:02;;;;;;;93.47;35.92;;;-0.10;99.90;;;;;;5035945;28;20049;-74
2023/01/21 04:53:28;;;;;;;101.85;37.15;;;-0.10;99.90;;;;;;5041104;28;20025;-74
2023/01/21 04:55:53;;;;;;;98.32;37.10;;;-0.20;99.90;;;;;;5028644;28;20036;-74
2023/01/21 04:58:20;;;;;;;103.97;38.88;;;-0.10;99.90;;;;;;5053917;28;20049;-74
2023/01/21 05:00:46;;;;;;;98.40;39.28;;;-0.10;99.90;;;;;;5053686;28;20025;-74
2023/01/21 05:03:12;;;;;;;100.30;38.80;;;-0.10;99.90;;;;;;5053060;28;20091;-74
2023/01/21 05:05:37;;;;;;;109.85;42.17;;;-0.10;99.90;;;;;;5053236;28;20068;-74
2023/01/21 05:08:03;;;;;;;112.32;45.53;;;-0.10;99.90;;;;;;5039339;28;20104;-74
2023/01/21 05:10:29;;;;;;;113.40;44.28;;;-0.20;99.90;;;;;;5053875;28;20029;-74
2023/01/21 05:12:54;;;;;;;107.50;43.33;;;-0.20;99.90;;;;;;5053436;28;20479;-74
2023/01/21 05:15:20;;;;;;;105.57;41.85;;;-0.20;99.90;;;;;;5052870;28;20021;-73
2023/01/21 05:17:45;;;;;;;104.25;41.97;;;-0.20;99.90;;;;;;5042790;28;20469;-74
2023/01/21 05:20:12;;;;;;;99.53;40.92;;;-0.30;99.90;;;;;;5048845;28;20021;-74
2023/01/21 05:22:38;;;;;;;98.55;38.83;;;-0.30;99.90;;;;;;5053586;28;20068;-74
2023/01/21 05:25:04;;;;;;;88.65;35.92;;;-0.30;99.90;;;;;;5052691;28;20399;-74
2023/01/21 05:27:30;;;;;;;89.68;35.00;;;-0.30;99.90;;;;;;5028867;28;20029;-74
2023/01/21 05:29:58;;;;;;;93.82;34.78;;;-0.30;99.90;;;;;;5045629;28;20020;-74
2023/01/21 05:32:24;;;;;;;88.95;31.83;;;-0.30;99.90;;;;;;5052404;28;20494;-74
2023/01/21 05:34:49;;;;;;;85.32;33.30;;;-0.30;99.90;;;;;;5053155;28;20037;-74
2023/01/21 05:37:15;;;;;;;82.85;30.27;;;-0.30;99.90;;;;;;5051529;28;20021;-74
2023/01/21 05:39:41;;;;;;;79.28;30.65;;;-0.30;99.90;;;;;;5053416;28;20577;-74
2023/01/21 05:42:06;;;;;;;85.32;31.83;;;-0.30;99.90;;;;;;5052315;28;20017;-74
2023/01/21 05:44:32;;;;;;;84.70;31.80;;;-0.30;99.90;;;;;;5053264;28;20574;-74
2023/01/21 05:46:57;;;;;;;79.20;31.20;;;-0.40;99.90;;;;;;5052918;28;20021;-74
2023/01/21 05:49:23;;;;;;;82.47;31.42;;;-0.30;99.90;;;;;;5045449;28;20399;-74
2023/01/21 05:51:48;;;;;;;86.88;31.75;;;-0.40;99.90;;;;;;5052332;28;20029;-74
2023/01/21 05:54:14;;;;;;;82.18;31.35;;;-0.40;99.90;;;;;;5046266;28;20033;-74
2023/01/21 05:56:40;;;;;;;79.82;31.38;;;-0.40;99.90;;;;;;5045485;28;20408;-74
2023/01/21 05:59:06;;;;;;;80.18;31.08;;;-0.40;99.90;;;;;;5046321;28;20075;-74
2023/01/21 06:01:32;;;;;;;84.18;31.33;;;-0.40;99.90;;;;;;5052776;28;20025;-74
2023/01/21 06:03:57;;;;;;;83.80;31.20;;;-0.40;99.90;;;;;;5047448;28;20353;-74
2023/01/21 06:06:23;;;;;;;80.68;30.13;;;-0.40;99.90;;;;;;5046165;28;20043;-74
2023/01/21 06:08:48;;;;;;;83.40;30.90;;;-0.40;99.90;;;;;;5049257;28;20029;-74
2023/01/21 06:11:14;;;;;;;83.68;30.30;;;-0.40;99.90;;;;;;5048194;28;20031;-74
2023/01/21 06:13:40;;;;;;;78.00;30.75;;;-0.40;99.90;;;;;;5045381;28;20361;-74
2023/01/21 06:16:06;;;;;;;86.13;32.75;;;-0.40;99.90;;;;;;5046403;28;20025;-74
2023/01/21 06:18:31;;;;;;;80.95;30.27;;;-0.40;99.90;;;;;;5044190;28;20017;-75
2023/01/21 06:21:00;;;;;;;83.60;30.95;;;-0.40;99.90;;;;;;5045408;28;20361;-74
2023/01/21 06:23:26;;;;;;;84.30;31.58;;;-0.40;99.90;;;;;;5052592;28;20029;-74
2023/01/21 06:25:52;;;;;;;88.35;31.88;;;-0.50;99.90;;;;;;5049322;28;20036;-74
2023/01/21 06:28:18;;;;;;;86.47;31.55;;;-0.50;99.90;;;;;;5048616;28;20029;-74
2023/01/21 06:30:43;;;;;;;89.63;32.55;;;-0.50;99.90;;;;;;5045218;28;20443;-74
2023/01/21 06:33:09;;;;;;;85.07;32.60;;;-0.50;99.90;;;;;;5045130;28;20021;-74
2023/01/21 06:35:35;;;;;;;84.50;30.75;;;-0.50;99.90;;;;;;5050763;28;20041;-74
2023/01/21 06:38:02;;;;;;;82.22;31.23;;;-0.50;99.90;;;;;;5047254;28;20037;-74
2023/01/21 06:40:27;;;;;;;76.90;29.83;;;-0.50;99.90;;;;;;5049880;28;20025;-74
2023/01/21 06:42:53;;;;;;;82.55;32.08;;;-0.50;99.90;;;;;;5048768;28;20021;-74
2023/01/21 06:45:19;;;;;;;78.20;30.95;;;-0.50;99.90;;;;;;5047289;28;20108;-74
2023/01/21 06:47:45;;;;;;;83.07;31.25;;;-0.50;99.90;;;;;;5025314;28;20063;-74
2023/01/21 06:50:12;;;;;;;77.55;31.08;;;-0.60;99.90;;;;;;5046306;28;20579;-74
2023/01/21 06:52:41;;;;;;;83.95;31.60;;;-0.60;99.90;;;;;;5051125;28;20025;-74
2023/01/21 06:55:07;;;;;;;82.88;31.98;;;-0.60;99.90;;;;;;5051186;28;20060;-75
2023/01/21 06:57:33;;;;;;;82.38;31.83;;;-0.60;99.90;;;;;;5044768;28;20065;-74
2023/01/21 06:59:58;;;;;;;85.72;31.13;;;-0.60;99.90;;;;;;5038522;28;20108;-74
2023/01/21 07:02:24;;;;;;;86.60;31.80;;;-0.60;99.90;;;;;;5044057;28;20025;-74
2023/01/21 07:04:50;;;;;;;88.57;32.28;;;-0.60;99.90;;;;;;5039342;28;20021;-74
2023/01/21 07:07:16;;;;;;;89.13;32.40;;;-0.60;99.90;;;;;;5042922;28;20028;-75
2023/01/21 07:09:42;;;;;;;82.85;31.85;;;-0.60;99.90;;;;;;5042767;28;20039;-74
2023/01/21 07:12:08;;;;;;;87.95;31.90;;;-0.70;99.90;;;;;;5038564;28;20024;-75
2023/01/21 07:14:34;;;;;;;84.85;32.00;;;-0.70;99.90;;;;;;5044900;28;20520;-75
2023/01/21 07:17:00;;;;;;;86.60;32.22;;;-0.70;99.90;;;;;;5046658;28;20021;-74
2023/01/21 07:19:26;;;;;;;84.97;31.60;;;-0.70;99.90;;;;;;5044448;28;20021;-74
2023/01/21 07:21:53;;;;;;;85.05;31.50;;;-0.70;99.90;;;;;;5033074;28;20438;-75
2023/01/21 07:24:18;;;;;;;87.25;31.20;;;-0.70;99.90;;;;;;5035924;28;20017;-75
2023/01/21 07:26:44;;;;;;;84.60;32.47;;;-0.70;99.90;;;;;;5050834;28;20108;-75
2023/01/21 07:29:10;;;;;;;89.75;32.70;;;-0.70;99.90;;;;;;5041722;28;20025;-75
2023/01/21 07:31:36;;;;;;;79.15;30.70;;;-0.70;99.90;;;;;;5042755;28;20480;-75
2023/01/21 07:34:02;;;;;;;88.28;33.03;;;-0.70;99.90;;;;;;5032325;28;20063;-75
2023/01/21 07:36:28;;;;;;;87.28;30.98;;;-0.70;99.90;;;;;;5041182;28;20056;-74
2023/01/21 07:38:54;;;;;;;88.85;32.75;;;-0.70;99.90;;;;;;5050388;28;20057;-75
2023/01/21 07:41:19;;;;;;;92.13;32.90;;;-0.70;99.90;;;;;;5038890;28;20435;-75
2023/01/21 07:43:48;;;;;;;85.35;31.05;;;-0.80;99.90;;;;;;5043312;28;20022;-76
2023/01/21 07:46:18;;;;;;;92.82;33.05;;;-0.80;99.90;;;;;;5041604;28;20052;-75
2023/01/21 07:48:47;;;;;;;92.40;34.20;;;-0.80;99.90;;;;;;5049409;28;20048;-75
2023/01/21 07:51:12;;;;;;;91.47;34.35;;;-0.90;99.90;;;;;;5046091;28;20379;-75
2023/01/21 07:53:38;;;;;;;93.25;33.67;;;-0.80;99.90;;;;;;5051103;28;20080;-74
2023/01/21 07:56:05;;;;;;;90.78;33.78;;;-0.80;99.90;;;;;;5045726;28;20436;-74
2023/01/21 07:58:31;;;;;;;96.00;34.88;;;-0.80;99.90;;;;;;5039893;28;20041;-74
2023/01/21 08:00:56;;;;;;;95.32;34.25;;;-0.90;99.90;;;;;;5047838;28;20021;-74
2023/01/21 08:03:23;;;;;;;96.03;33.60;;;-0.80;99.90;;;;;;5045875;28;20021;-74
2023/01/21 08:05:50;;;;;;;96.30;35.40;;;-0.80;99.90;;;;;;5045943;28;20025;-74
2023/01/21 08:08:17;;;;;;;97.90;35.42;;;-0.80;99.90;;;;;;5027879;28;20025;-76
2023/01/21 08:10:43;;;;;;;107.68;36.75;;;-0.80;99.90;;;;;;5039566;28;20521;-74
2023/01/21 08:13:08;;;;;;;106.90;36.22;;;-0.80;99.90;;;;;;5046092;28;20025;-74
2023/01/21 08:15:34;;;;;;;109.57;37.05;;;-0.80;99.90;;;;;;5046119;28;20052;-73
2023/01/21 08:18:00;;;;;;;100.22;36.47;;;-0.80;99.90;;;;;;5046522;28;20508;-74
2023/01/21 08:20:25;;;;;;;111.47;39.50;;;-0.70;99.90;;;;;;5040930;28;20036;-74
2023/01/21 08:22:51;;;;;;;106.40;37.45;;;-0.70;99.90;;;;;;5043599;28;20049;-74
2023/01/21 08:25:17;;;;;;;117.90;39.72;;;-0.70;99.90;;;;;;5037403;28;20038;-74
2023/01/21 08:27:43;;;;;;;115.32;38.97;;;-0.70;99.90;;;;;;5030745;28;20022;-74
2023/01/21 08:30:09;;;;;;;109.80;38.13;;;-0.70;99.90;;;;;;5044759;28;20040;-74
2023/01/21 08:32:34;;;;;;;106.75;36.85;;;-0.60;99.90;;;;;;5032158;28;20021;-74
2023/01/21 08:35:00;;;;;;;113.13;39.70;;;-0.60;99.90;;;;;;5033373;28;20034;-74
2023/01/21 08:37:26;;;;;;;109.50;37.88;;;-0.60;99.90;;;;;;5047387;28;20025;-74
2023/01/21 08:39:51;;;;;;;109.32;37.90;;;-0.50;99.90;;;;;;5043552;28;20411;-74
2023/01/21 08:42:17;;;;;;;117.95;40.17;;;-0.50;99.90;;;;;;5042103;28;20029;-74
2023/01/21 08:44:44;;;;;;;115.47;38.97;;;-0.50;99.90;;;;;;5045899;28;20092;-74
2023/01/21 08:47:10;;;;;;;124.38;42.15;;;-0.50;99.90;;;;;;5048837;28;20516;-74
2023/01/21 08:49:36;;;;;;;122.97;45.15;;;-0.50;99.90;;;;;;5035300;28;20587;-74
2023/01/21 08:52:02;;;;;;;135.55;49.53;;;-0.40;99.90;;;;;;5045158;28;20029;-74
2023/01/21 08:54:28;;;;;;;132.75;45.80;;;-0.40;99.90;;;;;;5037209;28;20020;-74
2023/01/21 08:56:54;;;;;;;126.18;45.85;;;-0.40;99.90;;;;;;5032848;28;20022;-74
2023/01/21 08:59:27;;;;;;;131.05;47.08;;;-0.40;99.90;;;;;;5030144;28;20039;-74
2023/01/21 09:01:53;;;;;;;121.90;45.80;;;-0.30;99.90;;;;;;5035925;28;20033;-74
2023/01/21 09:04:19;;;;;;;123.60;44.83;;;-0.30;99.90;;;;;;5045522;28;20117;-74
2023/01/21 09:06:44;;;;;;;124.75;43.60;;;-0.30;99.90;;;;;;5030952;28;20101;-74
2023/01/21 09:09:10;;;;;;;111.30;41.65;;;-0.30;99.90;;;;;;5030750;28;20048;-74
2023/01/21 09:11:36;;;;;;;110.70;40.75;;;-0.30;99.90;;;;;;5031373;28;20017;-74
2023/01/21 09:14:03;;;;;;;114.07;39.42;;;-0.30;99.90;;;;;;5029770;28;20017;-74
2023/01/21 09:16:32;;;;;;;117.10;40.20;;;-0.20;99.90;;;;;;5029427;28;20117;-75
2023/01/21 09:18:59;;;;;;;112.03;39.35;;;-0.20;99.90;;;;;;5031869;28;20022;-74
2023/01/21 09:21:25;;;;;;;118.50;40.45;;;-0.20;99.90;;;;;;5032599;28;20021;-73
2023/01/21 09:23:51;;;;;;;115.93;40.17;;;-0.10;99.90;;;;;;5031333;28;20030;-74
2023/01/21 09:26:19;;;;;;;114.85;39.45;;;-0.10;99.90;;;;;;5030507;28;20033;-74
2023/01/21 09:28:50;;;;;;;109.90;39.15;;;0.00;99.90;;;;;;5034046;28;20376;-74
2023/01/21 09:31:17;;;;;;;112.90;39.90;;;0.00;99.90;;;;;;5033483;28;20029;-74
2023/01/21 09:33:46;;;;;;;122.35;41.60;;;0.10;99.90;;;;;;5031660;28;20470;-74
2023/01/21 09:36:15;;;;;;;125.18;40.35;;;0.10;99.90;;;;;;5032509;28;20044;-73
2023/01/21 09:38:42;;;;;;;117.78;40.50;;;0.20;99.90;;;;;;5029824;28;20028;-74
2023/01/21 09:41:23;;;;;;;115.70;41.85;;;0.20;99.90;;;;;;5028979;28;20755;-73
2023/01/21 09:44:10;;;;;;;120.95;40.17;;;0.30;99.90;;;;;;5038759;28;20108;-73
2023/01/21 09:46:53;;;;;;;119.68;41.58;;;0.30;99.90;;;;;;5036909;28;20083;-73
2023/01/21 09:49:34;;;;;;;120.50;42.03;;;0.40;99.90;;;;;;5035133;28;20083;-73
2023/01/21 09:52:13;;;;;;;122.25;42.95;;;0.40;99.90;;;;;;5033981;28;20025;-73
2023/01/21 09:54:39;;;;;;;115.43;39.80;;;0.50;99.90;;;;;;5032858;28;20026;-73
2023/01/21 09:57:42;;;;;;;116.20;41.15;;;0.60;99.90;;;;;;5034978;28;20427;-73
2023/01/21 10:00:07;;;;;;;114.97;42.67;;;0.60;99.90;;;;;;5034790;28;20030;-73
2023/01/21 10:02:57;;;;;;;110.82;40.63;;;0.70;99.90;;;;;;5034831;28;20025;-73
2023/01/21 10:05:23;;;;;;;119.78;42.38;;;0.80;99.90;;;;;;5033790;28;20022;-73
2023/01/21 10:08:14;;;;;;;125.25;43.30;;;0.90;99.90;;;;;;5034949;28;20384;-73
2023/01/21 10:11:12;;;;;;;120.03;41.92;;;1.00;99.90;;;;;;5036149;28;20025;-73
2023/01/21 10:13:44;;;;;;;110.28;40.67;;;1.00;99.90;;;;;;5032579;28;20045;-73
2023/01/21 10:16:40;;;;;;;118.53;42.00;;;1.10;99.90;;;;;;5038913;28;20079;-73
2023/01/21 10:19:15;;;;;;;122.53;45.10;;;1.20;99.90;;;;;;5044982;28;20399;-73
2023/01/21 10:21:56;;;;;;;133.63;48.28;;;1.20;99.90;;;;;;5044066;28;20490;-74
2023/01/21 10:24:47;;;;;;;139.70;52.42;;;1.30;99.90;;;;;;5044503;28;20028;-73
2023/01/21 10:27:17;;;;;;;115.10;45.65;;;1.30;99.90;;;;;;5036835;28;20025;-73
2023/01/21 10:29:43;;;;;;;112.10;43.47;;;1.30;99.90;;;;;;5048189;28;20546;-73
2023/01/21 10:32:15;;;;;;;124.60;46.15;;;1.30;99.90;;;;;;5034980;28;20147;-73
2023/01/21 10:34:53;;;;;;;114.28;45.65;;;1.30;99.90;;;;;;5035938;28;20044;-73
2023/01/21 10:37:48;;;;;;;103.32;41.72;;;1.30;99.90;;;;;;5042726;28;20032;-73
2023/01/21 10:40:44;;;;;;;104.53;40.22;;;1.30;99.90;;;;;;5041641;28;20116;-73
2023/01/21 10:43:36;;;;;;;102.78;39.55;;;1.30;99.90;;;;;;5040854;28;20395;-72
2023/01/21 10:46:15;;;;;;;99.40;36.47;;;1.40;99.90;;;;;;5047034;28;20546;-72
2023/01/21 10:48:48;;;;;;;91.90;36.80;;;1.40;99.90;;;;;;5040717;28;20022;-73
2023/01/21 10:51:30;;;;;;;94.32;36.50;;;1.40;99.90;;;;;;5044279;28;20109;-73
2023/01/21 10:54:02;;;;;;;86.20;35.35;;;1.40;99.90;;;;;;5038928;28;20104;-73
2023/01/21 10:57:08;;;;;;;84.95;34.95;;;1.40;99.90;;;;;;5044087;28;20025;-72
2023/01/21 10:59:36;;;;;;;89.82;35.58;;;1.40;99.90;;;;;;5036298;28;20027;-73
2023/01/21 11:02:07;;;;;;;81.22;33.85;;;1.40;99.90;;;;;;5048478;28;20111;-73
2023/01/21 11:04:35;;;;;;;83.10;33.75;;;1.30;99.90;;;;;;5033657;28;20037;-73
2023/01/21 11:07:04;;;;;;;81.60;34.13;;;1.30;99.90;;;;;;5025251;28;20060;-72
2023/01/21 11:09:34;;;;;;;81.82;34.38;;;1.40;99.90;;;;;;5036772;28;20380;-72
2023/01/21 11:12:01;;;;;;;81.00;32.83;;;1.40;99.90;;;;;;5051604;28;20079;-72
2023/01/21 11:14:27;;;;;;;83.50;34.08;;;1.40;99.90;;;;;;5049703;28;20068;-72
2023/01/21 11:16:54;;;;;;;82.03;32.70;;;1.50;99.90;;;;;;5051591;28;20071;-72
2023/01/21 11:19:25;;;;;;;76.75;32.50;;;1.50;99.90;;;;;;5051366;28;20380;-73
2023/01/21 11:22:04;;;;;;;77.50;32.63;;;1.60;99.90;;;;;;5049592;28;20380;-73
2023/01/21 11:24:51;;;;;;;78.20;32.30;;;1.50;99.90;;;;;;5050861;28;20072;-73
2023/01/21 11:27:33;;;;;;;81.65;33.72;;;1.60;99.90;;;;;;5043733;28;20030;-73
2023/01/21 11:30:00;;;;;;;75.55;33.25;;;1.60;99.90;;;;;;5030541;28;20104;-73
2023/01/21 11:32:28;;;;;;;70.28;29.27;;;1.60;99.90;;;;;;5038131;28;20101;-73
2023/01/21 11:35:01;;;;;;;68.75;29.48;;;1.60;99.90;;;;;;5044434;28;20029;-73
2023/01/21 11:37:29;;;;;;;69.38;29.23;;;1.60;99.90;;;;;;5043913;28;20029;-73
2023/01/21 11:40:05;;;;;;;69.40;29.67;;;1.60;99.90;;;;;;5026306;28;20104;-73
2023/01/21 11:42:31;;;;;;;72.18;31.00;;;1.60;99.90;;;;;;5049240;28;20025;-73
2023/01/21 11:45:25;;;;;;;72.20;31.13;;;1.60;99.90;;;;;;5045698;28;20040;-73
2023/01/21 11:47:52;;;;;;;72.03;30.40;;;1.70;99.90;;;;;;5039325;28;20044;-73
2023/01/21 11:50:38;;;;;;;72.57;31.80;;;1.70;99.90;;;;;;5043296;28;20049;-73
2023/01/21 11:53:07;;;;;;;71.53;31.92;;;1.70;99.90;;;;;;5044850;28;20045;-73
2023/01/21 11:55:38;;;;;;;76.80;33.58;;;1.70;99.90;;;;;;5041416;28;20040;-73
2023/01/21 11:58:14;;;;;;;75.07;31.90;;;1.60;99.90;;;;;;5049887;28;20040;-73
2023/01/21 12:00:44;;;;;;;72.55;30.10;;;1.60;99.90;;;;;;5047280;28;20033;-73
2023/01/21 12:03:16;;;;;;;74.75;31.90;;;1.60;99.90;;;;;;5047556;28;20095;-73
2023/01/21 12:05:46;;;;;;;71.18;31.63;;;1.70;99.90;;;;;;5023403;28;20476;-73
2023/01/21 12:08:24;;;;;;;70.45;30.13;;;1.60;99.90;;;;;;5049945;28;20028;-73
2023/01/21 12:10:51;;;;;;;75.05;30.90;;;1.70;99.90;;;;;;5050515;28;20052;-73
2023/01/21 12:13:23;;;;;;;74.28;31.10;;;1.70;99.90;;;;;;5044430;28;20017;-73
2023/01/21 12:15:57;;;;;;;68.47;30.52;;;1.80;99.90;;;;;;5041966;28;20025;-73
2023/01/21 12:18:50;;;;;;;71.07;29.85;;;1.80;99.90;;;;;;5035754;28;20388;-73
2023/01/21 12:21:37;;;;;;;67.32;28.45;;;1.90;99.90;;;;;;5049954;28;20357;-73
2023/01/21 12:24:34;;;;;;;62.60;27.05;;;1.90;99.90;;;;;;5048812;28;20096;-73
2023/01/21 12:27:26;;;;;;;66.60;27.88;;;2.00;99.90;;;;;;5045901;28;20032;-73
2023/01/21 12:30:12;;;;;;;60.92;26.25;;;2.00;99.90;;;;;;5045009;28;20024;-73
2023/01/21 12:32:49;;;;;;;64.30;27.08;;;2.00;99.90;;;;;;5040167;28;20038;-74
2023/01/21 12:35:43;;;;;;;67.72;27.30;;;2.00;99.90;;;;;;5042922;28;20384;-74
2023/01/21 12:38:29;;;;;;;61.63;26.25;;;2.00;99.90;;;;;;5042009;28;20029;-74
2023/01/21 12:41:04;;;;;;;62.92;27.20;;;2.10;99.90;;;;;;5037171;28;20040;-74
2023/01/21 12:43:29;;;;;;;;;;;2.10;99.90;;;;;;5039936;28;20025;-74
2023/01/21 12:46:15;;;;;;;65.88;28.17;;;2.20;99.90;;;;;;5041694;28;19949;-74
2023/01/21 12:48:57;;;;;;;72.55;31.20;;;2.20;99.90;;;;;;5042490;28;20431;-74